sensor_id;sensor_type;location;lat;lon;timestamp;temperature;humidity
20496;DHT22;10406;54.132;17.968;2022-10-31T00:03:18;11.10;99.90
20496;DHT22;10406;54.132;17.968;2022-10-31T00:08:41;11.20;99.90
20496;DHT22;10406;54.132;17.968;2022-10-31T00:14:04;11.20;99.90
20496;DHT22;10406;54.132;17.968;2022-10-31T00:19:26;11.20;99.90
20496;DHT22;10406;54.132;17.968;2022-10-31T00:24:52;11.20;99.90
20496;DHT22;10406;54.132;17.968;2022-10-31T00:30:20;11.30;99.90
20496;DHT22;10406;54.132;17.968;2022-10-31T00:35:51;11.30;99.90
20496;DHT22;10406;54.132;17.968;2022-10-31T00:41:17;11.30;99.90
20496;DHT22;10406;54.132;17.968;2022-10-31T00:46:48;11.30;99.90
20496;DHT22;10406;54.132;17.968;2022-10-31T00:52:18;11.40;99.90
20496;DHT22;10406;54.132;17.968;2022-10-31T00:57:46;11.30;99.90
20496;DHT22;10406;54.132;17.968;2022-10-31T01:03:18;11.40;99.90
20496;DHT22;10406;54.132;17.968;2022-10-31T01:08:43;11.40;99.90
20496;DHT22;10406;54.132;17.968;2022-10-31T01:14:09;11.40;99.90
20496;DHT22;10406;54.132;17.968;2022-10-31T01:19:30;11.40;99.90
20496;DHT22;10406;54.132;17.968;2022-10-31T01:24:52;11.40;99.90
20496;DHT22;10406;54.132;17.968;2022-10-31T01:30:18;11.50;99.90
20496;DHT22;10406;54.132;17.968;2022-10-31T01:35:39;11.50;99.90
20496;DHT22;10406;54.132;17.968;2022-10-31T01:41:03;11.50;99.90
20496;DHT22;10406;54.132;17.968;2022-10-31T01:46:32;11.50;99.90
20496;DHT22;10406;54.132;17.968;2022-10-31T01:52:05;11.50;99.90
20496;DHT22;10406;54.132;17.968;2022-10-31T01:57:33;11.50;99.90
20496;DHT22;10406;54.132;17.968;2022-10-31T02:02:55;11.50;99.90
20496;DHT22;10406;54.132;17.968;2022-10-31T02:08:31;11.50;99.90
20496;DHT22;10406;54.132;17.968;2022-10-31T02:14:03;11.50;99.90
20496;DHT22;10406;54.132;17.968;2022-10-31T02:19:41;11.50;99.90
20496;DHT22;10406;54.132;17.968;2022-10-31T02:31:18;11.50;99.90
20496;DHT22;10406;54.132;17.968;2022-10-31T02:36:52;11.60;99.90
20496;DHT22;10406;54.132;17.968;2022-10-31T02:42:32;11.60;99.90
20496;DHT22;10406;54.132;17.968;2022-10-31T02:48:03;11.50;99.90
20496;DHT22;10406;54.132;17.968;2022-10-31T02:53:33;11.50;99.90
20496;DHT22;10406;54.132;17.968;2022-10-31T02:58:58;11.60;99.90
20496;DHT22;10406;54.132;17.968;2022-10-31T03:04:45;11.50;99.90
20496;DHT22;10406;54.132;17.968;2022-10-31T03:10:23;11.50;99.90
20496;DHT22;10406;54.132;17.968;2022-10-31T03:15:51;11.60;99.90
20496;DHT22;10406;54.132;17.968;2022-10-31T03:21:29;11.60;99.90
20496;DHT22;10406;54.132;17.968;2022-10-31T03:27:02;11.60;99.90
20496;DHT22;10406;54.132;17.968;2022-10-31T03:32:41;11.50;99.90
20496;DHT22;10406;54.132;17.968;2022-10-31T03:38:08;11.60;99.90
20496;DHT22;10406;54.132;17.968;2022-10-31T03:43:33;11.60;99.90
20496;DHT22;10406;54.132;17.968;2022-10-31T03:49:02;11.60;99.90
20496;DHT22;10406;54.132;17.968;2022-10-31T03:54:31;11.60;99.90
20496;DHT22;10406;54.132;17.968;2022-10-31T04:00:03;11.60;99.90
20496;DHT22;10406;54.132;17.968;2022-10-31T04:05:27;11.60;99.90
20496;DHT22;10406;54.132;17.968;2022-10-31T04:10:56;11.60;99.90
20496;DHT22;10406;54.132;17.968;2022-10-31T04:16:20;11.60;99.90
20496;DHT22;10406;54.132;17.968;2022-10-31T04:22:06;11.60;99.90
20496;DHT22;10406;54.132;17.968;2022-10-31T04:27:28;11.60;99.90
20496;DHT22;10406;54.132;17.968;2022-10-31T04:32:52;11.60;99.90
20496;DHT22;10406;54.132;17.968;2022-10-31T04:38:15;11.70;99.90
20496;DHT22;10406;54.132;17.968;2022-10-31T04:43:47;11.70;99.90
20496;DHT22;10406;54.132;17.968;2022-10-31T04:49:20;11.70;99.90
20496;DHT22;10406;54.132;17.968;2022-10-31T04:54:48;11.70;99.90
20496;DHT22;10406;54.132;17.968;2022-10-31T05:00:22;11.70;99.90
20496;DHT22;10406;54.132;17.968;2022-10-31T05:05:46;11.70;99.90
20496;DHT22;10406;54.132;17.968;2022-10-31T05:11:08;11.70;99.90
20496;DHT22;10406;54.132;17.968;2022-10-31T05:16:36;11.80;99.90
20496;DHT22;10406;54.132;17.968;2022-10-31T05:22:06;11.80;99.90
20496;DHT22;10406;54.132;17.968;2022-10-31T05:27:33;11.80;99.90
20496;DHT22;10406;54.132;17.968;2022-10-31T05:33:17;11.80;99.90
20496;DHT22;10406;54.132;17.968;2022-10-31T05:38:45;11.90;99.90
20496;DHT22;10406;54.132;17.968;2022-10-31T05:44:42;11.90;99.90
20496;DHT22;10406;54.132;17.968;2022-10-31T05:50:17;11.90;99.90
20496;DHT22;10406;54.132;17.968;2022-10-31T05:56:29;11.90;99.90
20496;DHT22;10406;54.132;17.968;2022-10-31T06:02:16;12.00;99.90
20496;DHT22;10406;54.132;17.968;2022-10-31T06:07:59;12.00;99.90
20496;DHT22;10406;54.132;17.968;2022-10-31T06:13:53;12.00;99.90
20496;DHT22;10406;54.132;17.968;2022-10-31T06:19:32;12.00;99.90
20496;DHT22;10406;54.132;17.968;2022-10-31T06:25:00;12.10;99.90
20496;DHT22;10406;54.132;17.968;2022-10-31T06:30:23;12.10;99.90
20496;DHT22;10406;54.132;17.968;2022-10-31T06:35:58;12.10;99.90
20496;DHT22;10406;54.132;17.968;2022-10-31T06:41:25;12.20;99.90
20496;DHT22;10406;54.132;17.968;2022-10-31T06:46:56;12.20;99.90
20496;DHT22;10406;54.132;17.968;2022-10-31T06:52:21;12.20;99.90
20496;DHT22;10406;54.132;17.968;2022-10-31T06:57:52;12.30;99.90
20496;DHT22;10406;54.132;17.968;2022-10-31T07:03:18;12.30;99.90
20496;DHT22;10406;54.132;17.968;2022-10-31T07:08:40;12.30;99.90
20496;DHT22;10406;54.132;17.968;2022-10-31T07:14:08;12.30;99.90
20496;DHT22;10406;54.132;17.968;2022-10-31T07:19:42;12.30;99.90
20496;DHT22;10406;54.132;17.968;2022-10-31T07:25:09;12.40;99.90
20496;DHT22;10406;54.132;17.968;2022-10-31T07:30:38;12.40;99.90
20496;DHT22;10406;54.132;17.968;2022-10-31T07:36:05;12.60;99.90
20496;DHT22;10406;54.132;17.968;2022-10-31T07:41:31;12.50;99.90
20496;DHT22;10406;54.132;17.968;2022-10-31T07:46:55;12.70;99.90
20496;DHT22;10406;54.132;17.968;2022-10-31T07:52:22;12.70;99.90
20496;DHT22;10406;54.132;17.968;2022-10-31T07:57:58;12.70;99.90
20496;DHT22;10406;54.132;17.968;2022-10-31T08:03:34;12.80;99.90
20496;DHT22;10406;54.132;17.968;2022-10-31T08:08:55;12.80;99.90
20496;DHT22;10406;54.132;17.968;2022-10-31T08:14:22;12.90;99.90
20496;DHT22;10406;54.132;17.968;2022-10-31T08:19:49;13.00;99.90
20496;DHT22;10406;54.132;17.968;2022-10-31T08:25:15;13.10;99.90
20496;DHT22;10406;54.132;17.968;2022-10-31T08:30:42;13.10;99.90
20496;DHT22;10406;54.132;17.968;2022-10-31T08:36:08;13.20;99.90
20496;DHT22;10406;54.132;17.968;2022-10-31T08:41:38;13.30;99.90
20496;DHT22;10406;54.132;17.968;2022-10-31T08:47:08;13.40;99.90
20496;DHT22;10406;54.132;17.968;2022-10-31T08:52:34;13.40;99.90
20496;DHT22;10406;54.132;17.968;2022-10-31T08:58:00;13.60;99.90
20496;DHT22;10406;54.132;17.968;2022-10-31T09:03:32;13.60;99.90
20496;DHT22;10406;54.132;17.968;2022-10-31T09:09:00;13.70;99.90
20496;DHT22;10406;54.132;17.968;2022-10-31T09:14:30;13.80;99.90
20496;DHT22;10406;54.132;17.968;2022-10-31T09:19:54;13.80;99.90
20496;DHT22;10406;54.132;17.968;2022-10-31T09:25:16;13.80;99.90
20496;DHT22;10406;54.132;17.968;2022-10-31T09:30:48;13.90;99.90
20496;DHT22;10406;54.132;17.968;2022-10-31T09:36:19;14.00;99.90
20496;DHT22;10406;54.132;17.968;2022-10-31T09:42:39;14.20;99.90
20496;DHT22;10406;54.132;17.968;2022-10-31T09:48:26;14.20;99.90
20496;DHT22;10406;54.132;17.968;2022-10-31T09:53:53;14.30;99.90
20496;DHT22;10406;54.132;17.968;2022-10-31T09:59:33;14.40;99.90
20496;DHT22;10406;54.132;17.968;2022-10-31T10:05:10;14.30;99.90
20496;DHT22;10406;54.132;17.968;2022-10-31T10:10:45;14.30;99.90
20496;DHT22;10406;54.132;17.968;2022-10-31T10:16:35;14.10;99.90
20496;DHT22;10406;54.132;17.968;2022-10-31T10:22:07;14.20;99.90
20496;DHT22;10406;54.132;17.968;2022-10-31T10:27:46;14.20;99.90
20496;DHT22;10406;54.132;17.968;2022-10-31T10:33:18;14.20;99.90
20496;DHT22;10406;54.132;17.968;2022-10-31T10:38:51;14.20;99.90
20496;DHT22;10406;54.132;17.968;2022-10-31T10:44:20;14.20;99.90
20496;DHT22;10406;54.132;17.968;2022-10-31T10:49:48;14.20;99.90
20496;DHT22;10406;54.132;17.968;2022-10-31T10:55:22;14.20;99.90
20496;DHT22;10406;54.132;17.968;2022-10-31T11:00:50;14.20;99.90
20496;DHT22;10406;54.132;17.968;2022-10-31T11:06:20;14.20;99.90
20496;DHT22;10406;54.132;17.968;2022-10-31T11:11:47;14.30;99.90
20496;DHT22;10406;54.132;17.968;2022-10-31T11:17:24;14.20;99.90
20496;DHT22;10406;54.132;17.968;2022-10-31T11:23:05;14.30;99.90
20496;DHT22;10406;54.132;17.968;2022-10-31T11:28:31;14.30;99.90
20496;DHT22;10406;54.132;17.968;2022-10-31T11:34:00;14.20;99.90
20496;DHT22;10406;54.132;17.968;2022-10-31T11:39:26;14.30;99.90
20496;DHT22;10406;54.132;17.968;2022-10-31T11:44:49;14.20;99.90
20496;DHT22;10406;54.132;17.968;2022-10-31T11:50:19;14.20;99.90
20496;DHT22;10406;54.132;17.968;2022-10-31T11:55:45;14.20;99.90
20496;DHT22;10406;54.132;17.968;2022-10-31T12:01:32;14.20;99.90
20496;DHT22;10406;54.132;17.968;2022-10-31T12:06:53;14.20;99.90
20496;DHT22;10406;54.132;17.968;2022-10-31T12:12:52;14.10;99.90
20496;DHT22;10406;54.132;17.968;2022-10-31T12:18:36;14.10;99.90
20496;DHT22;10406;54.132;17.968;2022-10-31T12:24:26;14.10;99.90
20496;DHT22;10406;54.132;17.968;2022-10-31T12:30:13;14.20;99.90
20496;DHT22;10406;54.132;17.968;2022-10-31T12:35:57;14.10;99.90
20496;DHT22;10406;54.132;17.968;2022-10-31T12:41:41;14.00;99.90
20496;DHT22;10406;54.132;17.968;2022-10-31T12:47:44;14.00;99.90
20496;DHT22;10406;54.132;17.968;2022-10-31T12:53:30;14.00;99.90
20496;DHT22;10406;54.132;17.968;2022-10-31T12:59:14;13.90;99.90
20496;DHT22;10406;54.132;17.968;2022-10-31T13:04:55;13.90;99.90
20496;DHT22;10406;54.132;17.968;2022-10-31T13:10:29;13.90;99.90
20496;DHT22;10406;54.132;17.968;2022-10-31T13:16:11;13.90;99.90
20496;DHT22;10406;54.132;17.968;2022-10-31T13:21:53;13.80;99.90
20496;DHT22;10406;54.132;17.968;2022-10-31T13:27:23;13.80;99.90
20496;DHT22;10406;54.132;17.968;2022-10-31T13:32:50;13.80;99.90
20496;DHT22;10406;54.132;17.968;2022-10-31T13:38:19;13.80;99.90
20496;DHT22;10406;54.132;17.968;2022-10-31T13:43:55;13.90;99.90
20496;DHT22;10406;54.132;17.968;2022-10-31T13:49:36;13.80;99.90
20496;DHT22;10406;54.132;17.968;2022-10-31T13:55:41;13.80;99.90
20496;DHT22;10406;54.132;17.968;2022-10-31T14:01:15;13.70;99.90
20496;DHT22;10406;54.132;17.968;2022-10-31T14:06:51;13.80;99.90
20496;DHT22;10406;54.132;17.968;2022-10-31T14:12:30;13.90;99.90
20496;DHT22;10406;54.132;17.968;2022-10-31T14:18:01;13.80;99.90
20496;DHT22;10406;54.132;17.968;2022-10-31T14:23:39;13.70;99.90
20496;DHT22;10406;54.132;17.968;2022-10-31T14:29:25;13.70;99.90
20496;DHT22;10406;54.132;17.968;2022-10-31T14:34:58;13.60;99.90
20496;DHT22;10406;54.132;17.968;2022-10-31T14:40:33;13.70;99.90
20496;DHT22;10406;54.132;17.968;2022-10-31T14:46:07;13.60;99.90
20496;DHT22;10406;54.132;17.968;2022-10-31T14:51:39;13.60;99.90
20496;DHT22;10406;54.132;17.968;2022-10-31T14:57:14;13.50;99.90
20496;DHT22;10406;54.132;17.968;2022-10-31T15:10:01;13.50;99.90
20496;DHT22;10406;54.132;17.968;2022-10-31T15:15:47;13.50;99.90
20496;DHT22;10406;54.132;17.968;2022-10-31T15:21:16;13.50;99.90
20496;DHT22;10406;54.132;17.968;2022-10-31T15:27:10;13.40;99.90
20496;DHT22;10406;54.132;17.968;2022-10-31T15:39:35;13.40;99.90
20496;DHT22;10406;54.132;17.968;2022-10-31T15:45:03;13.50;99.90
20496;DHT22;10406;54.132;17.968;2022-10-31T15:50:35;13.30;99.90
20496;DHT22;10406;54.132;17.968;2022-10-31T15:56:04;13.30;99.90
20496;DHT22;10406;54.132;17.968;2022-10-31T16:01:38;13.30;99.90
20496;DHT22;10406;54.132;17.968;2022-10-31T16:07:24;13.30;99.90
20496;DHT22;10406;54.132;17.968;2022-10-31T16:13:28;13.30;99.90
20496;DHT22;10406;54.132;17.968;2022-10-31T16:19:02;13.30;99.90
20496;DHT22;10406;54.132;17.968;2022-10-31T16:24:27;13.30;99.90
20496;DHT22;10406;54.132;17.968;2022-10-31T16:29:55;13.30;99.90
20496;DHT22;10406;54.132;17.968;2022-10-31T16:35:24;13.30;99.90
20496;DHT22;10406;54.132;17.968;2022-10-31T16:40:45;13.30;99.90
20496;DHT22;10406;54.132;17.968;2022-10-31T16:46:14;13.30;99.90
20496;DHT22;10406;54.132;17.968;2022-10-31T16:51:39;13.30;99.90
20496;DHT22;10406;54.132;17.968;2022-10-31T16:57:42;13.30;99.90
20496;DHT22;10406;54.132;17.968;2022-10-31T17:03:07;13.40;99.90
20496;DHT22;10406;54.132;17.968;2022-10-31T17:08:34;13.40;99.90
20496;DHT22;10406;54.132;17.968;2022-10-31T17:14:09;13.30;99.90
20496;DHT22;10406;54.132;17.968;2022-10-31T17:19:30;13.30;99.90
20496;DHT22;10406;54.132;17.968;2022-10-31T17:24:54;13.40;99.90
20496;DHT22;10406;54.132;17.968;2022-10-31T17:30:16;13.30;99.90
20496;DHT22;10406;54.132;17.968;2022-10-31T17:35:38;13.40;99.90
20496;DHT22;10406;54.132;17.968;2022-10-31T17:41:04;13.40;99.90
20496;DHT22;10406;54.132;17.968;2022-10-31T17:46:25;13.40;99.90
20496;DHT22;10406;54.132;17.968;2022-10-31T17:51:48;13.40;99.90
20496;DHT22;10406;54.132;17.968;2022-10-31T17:57:10;13.40;99.90
20496;DHT22;10406;54.132;17.968;2022-10-31T18:03:08;13.50;99.90
20496;DHT22;10406;54.132;17.968;2022-10-31T18:08:34;13.50;99.90
20496;DHT22;10406;54.132;17.968;2022-10-31T18:14:25;13.40;99.90
20496;DHT22;10406;54.132;17.968;2022-10-31T18:19:47;13.40;99.90
20496;DHT22;10406;54.132;17.968;2022-10-31T18:25:10;13.40;99.90
20496;DHT22;10406;54.132;17.968;2022-10-31T18:30:33;13.40;99.90
20496;DHT22;10406;54.132;17.968;2022-10-31T18:35:54;13.40;99.90
20496;DHT22;10406;54.132;17.968;2022-10-31T18:41:15;13.30;99.90
20496;DHT22;10406;54.132;17.968;2022-10-31T18:46:38;13.30;99.90
20496;DHT22;10406;54.132;17.968;2022-10-31T18:52:05;13.30;99.90
20496;DHT22;10406;54.132;17.968;2022-10-31T18:57:34;13.20;99.90
20496;DHT22;10406;54.132;17.968;2022-10-31T19:02:59;13.20;99.90
20496;DHT22;10406;54.132;17.968;2022-10-31T19:08:23;13.20;99.90
20496;DHT22;10406;54.132;17.968;2022-10-31T19:13:49;13.20;99.90
20496;DHT22;10406;54.132;17.968;2022-10-31T19:19:20;13.20;99.90
20496;DHT22;10406;54.132;17.968;2022-10-31T19:24:54;13.00;99.90
20496;DHT22;10406;54.132;17.968;2022-10-31T19:30:40;13.00;99.90
20496;DHT22;10406;54.132;17.968;2022-10-31T19:36:12;13.10;99.90
20496;DHT22;10406;54.132;17.968;2022-10-31T19:41:47;13.10;99.90
20496;DHT22;10406;54.132;17.968;2022-10-31T19:47:17;13.10;99.90
20496;DHT22;10406;54.132;17.968;2022-10-31T19:53:21;13.10;99.90
20496;DHT22;10406;54.132;17.968;2022-10-31T19:58:47;13.10;99.90
20496;DHT22;10406;54.132;17.968;2022-10-31T20:04:30;13.10;99.90
20496;DHT22;10406;54.132;17.968;2022-10-31T20:10:11;13.10;99.90
20496;DHT22;10406;54.132;17.968;2022-10-31T20:15:38;13.00;99.90
20496;DHT22;10406;54.132;17.968;2022-10-31T20:21:15;12.90;99.90
20496;DHT22;10406;54.132;17.968;2022-10-31T20:26:45;12.90;99.90
20496;DHT22;10406;54.132;17.968;2022-10-31T20:32:21;12.80;99.90
20496;DHT22;10406;54.132;17.968;2022-10-31T20:37:46;12.80;99.90
20496;DHT22;10406;54.132;17.968;2022-10-31T20:43:27;12.80;99.90
20496;DHT22;10406;54.132;17.968;2022-10-31T20:49:03;12.80;99.90
20496;DHT22;10406;54.132;17.968;2022-10-31T20:54:34;13.00;99.90
20496;DHT22;10406;54.132;17.968;2022-10-31T21:00:26;12.80;99.90
20496;DHT22;10406;54.132;17.968;2022-10-31T21:05:53;12.70;99.90
20496;DHT22;10406;54.132;17.968;2022-10-31T21:11:18;12.70;99.90
20496;DHT22;10406;54.132;17.968;2022-10-31T21:16:41;12.70;99.90
20496;DHT22;10406;54.132;17.968;2022-10-31T21:22:04;12.60;99.90
20496;DHT22;10406;54.132;17.968;2022-10-31T21:27:25;12.60;99.90
20496;DHT22;10406;54.132;17.968;2022-10-31T21:32:48;12.60;99.90
20496;DHT22;10406;54.132;17.968;2022-10-31T21:38:09;12.60;99.90
20496;DHT22;10406;54.132;17.968;2022-10-31T21:43:30;12.50;99.90
20496;DHT22;10406;54.132;17.968;2022-10-31T21:49:01;12.30;99.90
20496;DHT22;10406;54.132;17.968;2022-10-31T21:54:22;12.40;99.90
20496;DHT22;10406;54.132;17.968;2022-10-31T21:59:52;12.40;99.90
20496;DHT22;10406;54.132;17.968;2022-10-31T22:05:14;12.50;99.90
20496;DHT22;10406;54.132;17.968;2022-10-31T22:10:35;12.50;99.90
20496;DHT22;10406;54.132;17.968;2022-10-31T22:15:59;12.50;99.90
20496;DHT22;10406;54.132;17.968;2022-10-31T22:21:23;12.30;99.90
20496;DHT22;10406;54.132;17.968;2022-10-31T22:26:44;12.30;99.90
20496;DHT22;10406;54.132;17.968;2022-10-31T22:32:05;12.40;99.90
20496;DHT22;10406;54.132;17.968;2022-10-31T22:37:34;12.30;99.90
20496;DHT22;10406;54.132;17.968;2022-10-31T22:43:00;12.30;99.90
20496;DHT22;10406;54.132;17.968;2022-10-31T22:48:30;12.30;99.90
20496;DHT22;10406;54.132;17.968;2022-10-31T22:53:52;12.30;99.90
20496;DHT22;10406;54.132;17.968;2022-10-31T22:59:18;12.30;99.90
20496;DHT22;10406;54.132;17.968;2022-10-31T23:04:39;12.30;99.90
20496;DHT22;10406;54.132;17.968;2022-10-31T23:10:01;12.20;99.90
20496;DHT22;10406;54.132;17.968;2022-10-31T23:15:25;12.20;99.90
20496;DHT22;10406;54.132;17.968;2022-10-31T23:20:50;12.20;99.90
20496;DHT22;10406;54.132;17.968;2022-10-31T23:26:15;12.20;99.90
20496;DHT22;10406;54.132;17.968;2022-10-31T23:31:54;12.30;99.90
20496;DHT22;10406;54.132;17.968;2022-10-31T23:37:19;12.30;99.90
20496;DHT22;10406;54.132;17.968;2022-10-31T23:42:45;12.30;99.90
20496;DHT22;10406;54.132;17.968;2022-10-31T23:48:06;12.20;99.90
20496;DHT22;10406;54.132;17.968;2022-10-31T23:53:26;12.20;99.90
20496;DHT22;10406;54.132;17.968;2022-10-31T23:58:54;12.20;99.90
